Time;durP1;ratioP1;P1;durP2;ratioP2;P2;SDS_P1;SDS_P2;PMS_P1;PMS_P2;Temp;Humidity;BMP_temperature;BMP_pressure;BME280_temperature;BME280_humidity;BME280_pressure;Samples;Min_cycle;Max_cycle;Signal;HPM_P1;HPM_P2
2024/03/11 00:00:38;;;;;;;;;;;10.40;99.90;;;10.70;63.41;98569.19;4925114;29;19927;-84
2024/03/11 00:03:07;;;;;;;;;;;10.40;99.90;;;10.68;63.41;98566.78;4940849;29;19931;-84
2024/03/11 00:05:35;;;;;;;;;;;10.30;99.90;;;10.66;63.93;98566.25;4939722;29;20388;-84
2024/03/11 00:08:04;;;;;;;;;;;10.30;99.90;;;10.66;64.34;98574.25;4941621;29;20384;-85
2024/03/11 00:10:33;;;;;;;;;;;10.30;99.90;;;10.67;64.43;98575.84;4941694;29;19927;-84
2024/03/11 00:13:01;;;;;;;;;;;10.30;99.90;;;10.65;64.76;98572.63;4924711;29;20002;-84
2024/03/11 00:15:31;;;;;;;;;;;10.30;99.90;;;10.63;64.99;98569.41;4924349;29;19927;-84
2024/03/11 00:17:58;;;;;;;;;;;10.30;99.90;;;10.61;65.52;98568.09;4944016;29;19934;-84
2024/03/11 00:20:26;;;;;;;;;;;10.30;99.90;;;10.60;65.81;98564.63;4944705;29;19933;-84
2024/03/11 00:22:53;;;;;;;;;;;10.30;99.90;;;10.59;65.84;98576.34;4929290;29;19926;-85
2024/03/11 00:25:21;;;;;;;;;;;10.20;99.90;;;10.57;66.35;98575.78;4928780;29;19958;-85
2024/03/11 00:27:48;;;;;;;;;;;10.20;99.90;;;10.55;66.61;98569.91;4946081;29;19982;-85
2024/03/11 00:30:17;;;;;;;;;;;10.20;99.90;;;10.52;66.87;98575.75;4897769;29;19951;-85
2024/03/11 00:32:46;;;;;;;;;;;10.20;99.90;;;10.51;67.27;98566.16;4946551;29;19927;-85
2024/03/11 00:35:14;;;;;;;;;;;10.10;99.90;;;10.46;67.86;98564.25;4946738;29;19926;-84
2024/03/11 00:37:41;;;;;;;;;;;10.10;99.90;;;10.42;68.45;98573.03;4947164;29;20021;-85
2024/03/11 00:40:10;;;;;;;;;;;10.10;99.90;;;10.37;68.84;98575.66;4946888;29;20430;-85
2024/03/11 00:42:39;;;;;;;;;;;10.10;99.90;;;10.34;69.16;98562.84;4929261;29;19926;-85
2024/03/11 00:45:07;;;;;;;;;;;10.00;99.90;;;10.33;69.22;98570.03;4929342;29;19934;-85
2024/03/11 00:47:35;;;;;;;;;;;10.00;99.90;;;10.30;69.55;98571.38;4928661;29;20356;-85
2024/03/11 00:50:06;;;;;;;;;;;10.00;99.90;;;10.27;69.82;98571.88;4946570;29;19931;-85
2024/03/11 00:52:34;;;;;;;;;;;9.90;99.90;;;10.26;69.95;98574.78;4929837;29;19926;-85
2024/03/11 00:55:02;;;;;;;;;;;9.90;99.90;;;10.22;70.27;98574.47;4929225;29;19997;-85
2024/03/11 00:57:32;;;;;;;;;;;9.90;99.90;;;10.21;70.36;98575.53;4952354;29;20359;-85
2024/03/11 00:59:59;;;;;;;;;;;9.90;99.90;;;10.22;70.58;98574.47;4965163;28;19934;-85
2024/03/11 01:02:26;;;;;;;;;;;9.90;99.90;;;10.21;70.56;98572.06;4947971;29;20348;-85
2024/03/11 01:04:54;;;;;;;;;;;9.90;99.90;;;10.21;70.66;98575.53;4949344;29;19930;-84
2024/03/11 01:07:25;;;;;;;;;;;9.90;99.90;;;10.22;71.00;98578.97;4965118;28;19985;-85
2024/03/11 01:09:52;;;;;;;;;;;9.90;99.90;;;10.21;71.10;98580.84;4963661;29;19937;-84
2024/03/11 01:12:22;;;;;;;;;;;9.90;99.90;;;10.22;71.27;98582.44;4965537;28;20380;-85
2024/03/11 01:14:51;;;;;;;;;;;9.90;99.90;;;10.23;71.34;98583.25;4947918;29;19926;-85
2024/03/11 01:17:19;;;;;;;;;;;9.90;99.90;;;10.20;71.15;98589.06;4947335;29;19926;-85
2024/03/11 01:19:47;;;;;;;;;;;9.90;99.90;;;10.19;71.32;98584.81;4947223;29;19926;-85
2024/03/11 01:22:15;;;;;;;;;;;9.90;99.90;;;10.18;71.92;98589.34;4963409;28;20025;-85
2024/03/11 01:24:45;;;;;;;;;;;9.90;99.90;;;10.17;71.68;98595.72;4964828;28;19926;-85
2024/03/11 01:27:14;;;;;;;;;;;9.90;99.90;;;10.18;71.79;98597.34;4964288;28;19934;-84
2024/03/11 01:29:41;;;;;;;;;;;9.80;99.90;;;10.17;71.84;98592.28;4963925;29;19934;-85
2024/03/11 01:32:11;;;;;;;;;;;9.80;99.90;;;10.15;71.74;98595.19;4947432;29;19926;-84
2024/03/11 01:34:42;;;;;;;;;;;9.80;99.90;;;10.16;71.85;98602.13;4946739;29;19933;-84
2024/03/11 01:37:11;;;;;;;;;;;9.80;99.90;;;10.15;71.93;98597.03;4946189;29;19974;-84
2024/03/11 01:39:43;;;;;;;;;;;9.80;99.90;;;10.14;72.04;98598.91;4963508;29;19930;-84
2024/03/11 01:42:14;;;;;;;;;;;9.80;99.90;;;10.14;72.18;98592.75;4964132;29;19928;-84
2024/03/11 01:44:44;;;;;;;;;;;9.80;99.90;;;10.13;72.30;98597.28;4946617;29;19938;-85
2024/03/11 01:47:12;;;;;;;;;;;9.80;99.90;;;10.11;72.41;98599.41;4947521;28;20319;-85
2024/03/11 01:49:42;;;;;;;;;;;9.80;99.90;;;10.10;72.61;98603.13;4978661;28;19927;-84
2024/03/11 01:52:14;;;;;;;;;;;9.80;99.90;;;10.10;72.65;98594.31;4978247;28;19926;-85
2024/03/11 01:54:46;;;;;;;;;;;9.80;99.90;;;10.07;72.72;98590.31;4977733;28;20314;-85
2024/03/11 01:57:16;;;;;;;;;;;9.80;99.90;;;10.07;73.04;98590.31;4940406;29;19927;-85
2024/03/11 01:59:46;;;;;;;;;;;9.80;99.90;;;10.06;73.07;98581.53;4943922;29;20010;-85
2024/03/11 02:02:13;;;;;;;;;;;9.80;99.90;;;10.06;73.20;98584.19;4911457;29;19931;-84
2024/03/11 02:04:44;;;;;;;;;;;9.80;99.90;;;10.06;73.47;98580.75;4943411;29;20400;-84
2024/03/11 02:07:13;;;;;;;;;;;9.70;99.90;;;10.04;73.43;98577.50;4944880;29;19927;-84
2024/03/11 02:09:40;;;;;;;;;;;9.70;99.90;;;10.02;73.54;98574.31;4927159;29;19973;-84
2024/03/11 02:12:09;;;;;;;;;;;9.70;99.90;;;10.03;73.51;98581.22;4942832;29;19970;-84
2024/03/11 02:14:38;;;;;;;;;;;9.70;99.90;;;10.01;73.66;98581.50;4944754;29;19962;-84
2024/03/11 02:17:06;;;;;;;;;;;9.70;99.90;;;10.02;73.76;98582.28;4926486;29;19927;-84
2024/03/11 02:19:34;;;;;;;;;;;9.70;99.90;;;10.01;73.99;98580.69;4927184;29;19926;-85
2024/03/11 02:22:03;;;;;;;;;;;9.70;99.90;;;10.02;73.94;98577.78;4958383;28;19938;-84
2024/03/11 02:24:32;;;;;;;;;;;9.70;99.90;;;10.00;74.11;98581.72;4943763;29;19927;-85
2024/03/11 02:27:00;;;;;;;;;;;9.70;99.90;;;10.00;74.04;98585.22;4943968;29;20017;-84
2024/03/11 02:29:27;;;;;;;;;;;9.70;99.90;;;9.99;74.14;98575.59;4958323;29;19970;-84
2024/03/11 02:31:55;;;;;;;;;;;9.70;99.90;;;9.98;74.34;98578.53;4943830;29;19927;-84
2024/03/11 02:34:23;;;;;;;;;;;9.70;99.90;;;9.96;74.51;98575.31;4944324;29;19973;-85
2024/03/11 02:36:51;;;;;;;;;;;9.70;99.90;;;9.96;74.27;98572.66;4926866;29;19926;-85
2024/03/11 02:39:20;;;;;;;;;;;9.70;99.90;;;9.99;74.53;98577.47;4943639;29;19962;-85
2024/03/11 02:41:49;;;;;;;;;;;9.70;99.90;;;10.00;74.53;98581.72;4926975;29;19927;-85
2024/03/11 02:44:17;;;;;;;;;;;9.70;99.90;;;10.01;74.69;98575.38;4942520;29;19927;-85
2024/03/11 02:46:45;;;;;;;;;;;9.70;99.90;;;10.03;74.54;98579.38;4927164;29;19927;-85
2024/03/11 02:49:13;;;;;;;;;;;9.70;99.90;;;10.04;74.76;98580.16;4926402;29;20444;-84
2024/03/11 02:51:42;;;;;;;;;;;9.70;99.90;;;10.00;74.69;98579.91;4925746;29;19974;-85
2024/03/11 02:54:10;;;;;;;;;;;9.70;99.90;;;9.99;74.73;98577.47;4926953;29;19934;-85
2024/03/11 02:56:37;;;;;;;;;;;9.70;99.90;;;9.99;75.03;98578.28;4943566;29;19926;-85
2024/03/11 02:59:05;;;;;;;;;;;9.70;99.90;;;10.00;75.09;98584.38;4942071;29;20017;-84
2024/03/11 03:01:33;;;;;;;;;;;9.70;99.90;;;10.00;75.09;98579.91;4943939;29;20014;-85
2024/03/11 03:04:00;;;;;;;;;;;9.70;99.90;;;10.00;75.09;98582.56;4942028;29;19966;-85
2024/03/11 03:06:28;;;;;;;;;;;9.70;99.90;;;9.98;75.69;98584.66;4925690;29;19927;-85
2024/03/11 03:08:57;;;;;;;;;;;9.60;99.90;;;9.99;75.75;98582.78;4943480;29;19934;-85
2024/03/11 03:11:26;;;;;;;;;;;9.60;99.90;;;10.00;75.65;98584.38;4943118;29;19934;-85
2024/03/11 03:13:54;;;;;;;;;;;9.70;99.90;;;10.01;75.34;98581.50;4943803;29;19926;-85
2024/03/11 03:16:23;;;;;;;;;;;9.70;99.90;;;10.01;75.33;98586.81;4944437;29;20273;-85
2024/03/11 03:18:50;;;;;;;;;;;9.70;99.90;;;10.02;75.41;98588.44;4945469;29;20464;-85
2024/03/11 03:21:18;;;;;;;;;;;9.70;99.90;;;10.03;75.37;98578.56;4928179;29;19927;-84
2024/03/11 03:23:45;;;;;;;;;;;9.70;99.90;;;10.04;75.44;98575.66;4944280;29;19927;-84
2024/03/11 03:26:16;;;;;;;;;;;9.70;99.90;;;10.03;75.36;98573.25;4929373;29;20103;-85
2024/03/11 03:28:43;;;;;;;;;;;9.70;99.90;;;10.02;75.36;98576.97;4942886;29;19933;-85
2024/03/11 03:31:12;;;;;;;;;;;9.70;99.90;;;10.02;75.67;98571.66;4883389;29;19955;-85
2024/03/11 03:33:41;;;;;;;;;;;9.70;99.90;;;10.03;76.01;98578.56;4868645;29;20018;-85
2024/03/11 03:36:09;;;;;;;;;;;9.70;99.90;;;10.00;75.66;98563.09;4883995;29;19979;-85
2024/03/11 03:38:38;;;;;;;;;;;9.60;99.90;;;9.98;75.45;98575.88;4868083;29;19934;-85
2024/03/11 03:41:06;;;;;;;;;;;9.60;99.90;;;9.97;75.58;98571.59;4883817;29;20029;-85
2024/03/11 03:43:33;;;;;;;;;;;9.70;99.90;;;9.97;75.82;98572.41;4883224;29;19932;-85
2024/03/11 03:46:02;;;;;;;;;;;9.70;99.90;;;9.98;75.83;98568.69;4868749;29;20018;-85
2024/03/11 03:48:30;;;;;;;;;;;9.70;99.90;;;9.99;75.83;98569.47;4898989;29;19935;-85
2024/03/11 03:51:03;;;;;;;;;;;9.70;99.90;;;9.99;75.79;98566.81;4901297;29;19934;-85
2024/03/11 03:53:30;;;;;;;;;;;9.60;99.90;;;9.99;75.97;98567.63;4886561;29;19928;-85
2024/03/11 03:55:58;;;;;;;;;;;9.60;99.90;;;9.99;76.04;98572.13;4901951;29;20425;-85
2024/03/11 03:58:25;;;;;;;;;;;9.70;99.90;;;9.99;76.01;98569.47;4886876;29;19943;-85
2024/03/11 04:00:52;;;;;;;;;;;9.70;99.90;;;9.99;76.08;98566.81;4885827;29;19931;-85
2024/03/11 04:03:21;;;;;;;;;;;9.70;99.90;;;9.97;76.05;98574.28;4938980;29;19998;-85
2024/03/11 04:05:49;;;;;;;;;;;9.70;99.90;;;9.97;76.24;98579.59;4924928;29;19927;-85
2024/03/11 04:08:19;;;;;;;;;;;9.70;99.90;;;9.97;76.13;98580.41;4925002;29;19926;-85
2024/03/11 04:10:46;;;;;;;;;;;9.70;99.90;;;9.98;76.17;98582.00;4893924;29;19930;-85
2024/03/11 04:13:14;;;;;;;;;;;9.70;99.90;;;9.98;76.09;98578.53;4924588;29;19927;-85
2024/03/11 04:15:42;;;;;;;;;;;9.70;99.90;;;9.98;76.14;98583.84;4941701;29;19927;-85
2024/03/11 04:18:10;;;;;;;;;;;9.70;99.90;;;10.01;76.17;98580.69;4924444;29;19927;-85
2024/03/11 04:20:39;;;;;;;;;;;9.70;99.90;;;10.00;76.01;98571.91;4940225;29;19986;-85
2024/03/11 04:23:07;;;;;;;;;;;9.70;99.90;;;10.01;76.02;98575.38;4924807;29;19955;-85
2024/03/11 04:25:38;;;;;;;;;;;9.70;99.90;;;9.99;76.12;98580.13;4924903;29;19927;-85
2024/03/11 04:28:06;;;;;;;;;;;9.70;99.90;;;9.98;76.31;98576.66;4940520;29;19927;-85
2024/03/11 04:30:37;;;;;;;;;;;9.70;99.90;;;9.98;76.32;98584.66;4941969;29;19927;-85
2024/03/11 04:33:06;;;;;;;;;;;9.70;99.90;;;9.99;76.36;98582.78;4941665;29;20456;-85
2024/03/11 04:35:34;;;;;;;;;;;9.70;99.90;;;10.02;76.43;98582.28;4941776;29;19973;-85
2024/03/11 04:38:03;;;;;;;;;;;9.70;99.90;;;10.01;76.40;98581.50;4941729;29;19954;-85
2024/03/11 04:40:31;;;;;;;;;;;9.70;99.90;;;10.02;76.65;98579.63;4942522;29;19927;-85
2024/03/11 04:43:00;;;;;;;;;;;9.70;99.90;;;10.03;76.42;98579.38;4941089;29;20021;-85
2024/03/11 04:45:27;;;;;;;;;;;9.70;99.90;;;10.02;76.45;98582.28;4942353;29;19926;-85
2024/03/11 04:47:57;;;;;;;;;;;9.70;99.90;;;10.03;76.37;98591.88;4941370;29;20001;-85
2024/03/11 04:50:25;;;;;;;;;;;9.70;99.90;;;10.02;76.37;98590.28;4940754;29;19937;-85
2024/03/11 04:52:53;;;;;;;;;;;9.70;99.90;;;10.01;76.32;98589.50;4925272;29;19927;-85
2024/03/11 04:55:20;;;;;;;;;;;9.70;99.90;;;10.01;76.37;98580.69;4924969;29;19927;-85
2024/03/11 04:57:47;;;;;;;;;;;9.70;99.90;;;10.00;76.32;98590.56;4924752;29;19927;-85
2024/03/11 05:00:17;;;;;;;;;;;9.70;99.90;;;9.99;76.53;98588.91;4925383;29;19931;-85
2024/03/11 05:02:45;;;;;;;;;;;9.70;99.90;;;9.99;76.70;98593.44;4941589;29;19927;-85
2024/03/11 05:05:12;;;;;;;;;;;9.70;99.90;;;9.99;76.58;98599.56;4945793;29;19977;-85
2024/03/11 05:07:40;;;;;;;;;;;9.70;99.90;;;9.99;76.79;98594.25;4943020;29;19927;-85
2024/03/11 05:10:09;;;;;;;;;;;9.70;99.90;;;10.01;76.74;98602.81;4941611;29;19927;-86
2024/03/11 05:12:37;;;;;;;;;;;9.70;99.90;;;10.03;76.90;98608.66;4942712;29;19990;-86
2024/03/11 05:15:09;;;;;;;;;;;9.70;99.90;;;10.04;76.81;98604.94;4924366;29;19927;-85
2024/03/11 05:17:39;;;;;;;;;;;9.70;99.90;;;10.05;76.76;98603.91;4942226;29;19927;-85
2024/03/11 05:20:11;;;;;;;;;;;9.80;99.90;;;10.06;76.74;98599.38;4926291;29;19926;-82
2024/03/11 05:22:41;;;;;;;;;;;9.70;99.90;;;10.04;76.76;98612.94;4928297;29;19927;-84
2024/03/11 05:25:11;;;;;;;;;;;9.70;99.90;;;10.03;76.77;98602.53;4928335;29;20293;-83
2024/03/11 05:27:40;;;;;;;;;;;9.70;99.90;;;10.03;76.97;98594.56;4946226;29;19927;-84
2024/03/11 05:30:08;;;;;;;;;;;9.70;99.90;;;10.02;77.09;98600.94;4944705;29;20304;-84
2024/03/11 05:32:40;;;;;;;;;;;9.70;99.90;;;9.99;76.98;98602.22;4943640;29;20017;-84
2024/03/11 05:35:08;;;;;;;;;;;9.70;99.90;;;10.00;77.02;98609.19;4927455;29;19954;-83
2024/03/11 05:37:36;;;;;;;;;;;9.70;99.90;;;9.99;77.15;98612.09;4927124;29;20408;-84
2024/03/11 05:40:08;;;;;;;;;;;9.70;99.90;;;10.00;77.06;98617.19;4945351;29;19961;-83
2024/03/11 05:42:40;;;;;;;;;;;9.70;99.90;;;10.00;77.42;98621.69;4928757;29;20017;-83
2024/03/11 05:45:10;;;;;;;;;;;9.70;99.90;;;10.00;77.39;98619.00;4928104;29;20018;-83
2024/03/11 05:47:41;;;;;;;;;;;9.70;99.90;;;10.00;77.43;98621.69;4913752;29;19927;-82
2024/03/11 05:50:09;;;;;;;;;;;9.70;99.90;;;10.02;77.42;98624.91;4899435;29;19927;-83
2024/03/11 05:52:37;;;;;;;;;;;9.70;99.90;;;10.00;77.42;98619.84;4925508;29;19927;-83
2024/03/11 05:55:11;;;;;;;;;;;9.80;99.90;;;9.99;77.56;98623.53;4943315;29;19927;-82
2024/03/11 05:57:43;;;;;;;;;;;9.70;99.90;;;10.00;77.61;98616.34;4934777;29;19934;-83
2024/03/11 06:00:15;;;;;;;;;;;9.70;99.90;;;10.00;77.61;98627.00;4938717;29;19927;-83
2024/03/11 06:02:46;;;;;;;;;;;9.70;99.90;;;10.00;77.67;98621.69;4935207;29;19950;-85
2024/03/11 06:05:19;;;;;;;;;;;9.70;99.90;;;9.99;77.60;98612.09;4924183;29;20010;-85
2024/03/11 06:07:52;;;;;;;;;;;9.70;99.90;;;10.00;77.72;98606.53;4907377;29;20018;-85
2024/03/11 06:10:36;;;;;;;;;;;9.70;99.90;;;10.00;77.64;98611.03;4908161;29;19927;-84
2024/03/11 06:13:10;;;;;;;;;;;9.70;99.90;;;9.99;77.77;98614.75;4906144;29;19927;-86
2024/03/11 06:15:37;;;;;;;;;;;9.70;99.90;;;10.00;77.80;98616.34;4905355;29;19927;-83
2024/03/11 06:18:06;;;;;;;;;;;9.70;99.90;;;10.01;77.64;98620.66;4922473;29;19979;-83
2024/03/11 06:20:34;;;;;;;;;;;9.70;99.90;;;10.01;77.84;98617.97;4940013;29;19937;-84
2024/03/11 06:23:02;;;;;;;;;;;9.80;99.90;;;10.00;77.76;98621.69;4925623;29;19933;-83
2024/03/11 06:25:30;;;;;;;;;;;9.70;99.90;;;9.99;77.81;98620.88;4925997;29;19930;-84
2024/03/11 06:27:58;;;;;;;;;;;9.70;99.90;;;10.00;77.84;98613.69;4941089;29;19930;-83
2024/03/11 06:30:25;;;;;;;;;;;9.70;99.90;;;10.00;77.79;98614.53;4907571;29;20022;-83
2024/03/11 06:32:53;;;;;;;;;;;9.80;99.90;;;10.02;77.83;98627.56;4923767;29;19933;-83
2024/03/11 06:35:22;;;;;;;;;;;9.80;99.90;;;10.01;77.86;98623.31;4926336;29;20400;-83
2024/03/11 06:37:49;;;;;;;;;;;9.70;99.90;;;10.02;78.07;98624.91;4941814;29;20458;-83
2024/03/11 06:40:21;;;;;;;;;;;9.70;99.90;;;10.01;78.06;98621.44;4924231;29;20388;-83
2024/03/11 06:42:51;;;;;;;;;;;9.70;99.90;;;10.02;78.11;98627.56;4922020;29;19927;-84
2024/03/11 06:45:20;;;;;;;;;;;9.70;99.90;;;10.02;78.16;98632.91;4932825;29;19926;-83
2024/03/11 06:47:48;;;;;;;;;;;9.70;99.90;;;9.96;78.06;98633.91;4948020;29;20384;-83
2024/03/11 06:50:15;;;;;;;;;;;9.70;99.90;;;9.96;78.33;98637.38;4943324;29;19975;-83
2024/03/11 06:52:45;;;;;;;;;;;9.70;99.90;;;9.95;78.38;98638.41;4942920;29;20427;-83
2024/03/11 06:55:12;;;;;;;;;;;9.70;99.90;;;9.98;78.37;98647.78;4943129;29;19926;-83
2024/03/11 06:57:41;;;;;;;;;;;9.70;99.90;;;9.98;78.46;98640.59;4960908;29;19930;-83
2024/03/11 07:00:17;;;;;;;;;;;9.70;99.90;;;10.00;78.45;98640.31;4943440;29;19973;-83
2024/03/11 07:02:48;;;;;;;;;;;9.70;99.90;;;9.99;78.23;98639.50;4960262;29;19977;-83
2024/03/11 07:05:17;;;;;;;;;;;9.80;99.90;;;9.96;78.65;98642.72;4929272;29;19951;-83
2024/03/11 07:07:47;;;;;;;;;;;9.70;99.90;;;9.96;78.61;98653.34;4946627;29;19930;-83
2024/03/11 07:10:15;;;;;;;;;;;9.70;99.90;;;9.99;78.56;98647.50;4957207;29;19993;-83
2024/03/11 07:12:43;;;;;;;;;;;9.70;99.90;;;10.01;78.54;98653.41;4949437;28;19927;-84
2024/03/11 07:15:11;;;;;;;;;;;9.80;99.90;;;9.98;78.50;98651.22;4924659;29;19927;-84
2024/03/11 07:17:38;;;;;;;;;;;9.70;99.90;;;9.98;78.53;98653.91;4942012;29;19954;-83
2024/03/11 07:20:08;;;;;;;;;;;9.70;99.90;;;9.98;78.62;98655.75;4909072;29;19927;-83
2024/03/11 07:22:36;;;;;;;;;;;9.70;99.90;;;9.97;78.66;98656.81;4927683;29;19927;-84
2024/03/11 07:25:09;;;;;;;;;;;9.70;99.90;;;9.96;78.73;98665.88;4960012;28;20303;-83
2024/03/11 07:27:38;;;;;;;;;;;9.70;99.90;;;9.95;78.70;98667.69;4959720;29;19926;-84
2024/03/11 07:30:08;;;;;;;;;;;9.70;99.90;;;9.96;78.73;98676.53;4937391;29;19926;-82
2024/03/11 07:32:35;;;;;;;;;;;9.70;99.90;;;9.97;78.70;98675.47;4957966;28;19926;-82
2024/03/11 07:35:03;;;;;;;;;;;9.70;99.90;;;9.97;78.81;98670.13;4941384;29;19957;-81
2024/03/11 07:37:36;;;;;;;;;;;9.70;99.90;;;9.95;78.68;98666.91;4959616;29;19961;-82
2024/03/11 07:40:11;;;;;;;;;;;9.70;99.90;;;9.95;78.59;98672.22;4954838;29;19990;-83
2024/03/11 07:42:40;;;;;;;;;;;9.70;99.90;;;9.94;78.58;98682.06;4941509;29;20355;-83
2024/03/11 07:45:11;;;;;;;;;;;9.70;99.90;;;9.95;78.57;98690.88;4941444;29;19974;-82
2024/03/11 07:47:40;;;;;;;;;;;9.70;99.90;;;9.95;78.48;98690.88;4921574;29;19973;-82
2024/03/11 07:50:10;;;;;;;;;;;9.70;99.90;;;9.95;78.46;98693.53;4937963;29;19962;-82
2024/03/11 07:52:38;;;;;;;;;;;9.70;99.90;;;9.95;78.21;98699.66;4939576;29;19934;-82
2024/03/11 07:55:07;;;;;;;;;;;9.70;99.90;;;9.95;78.20;98702.31;4940047;29;19930;-82
2024/03/11 07:57:35;;;;;;;;;;;9.70;99.90;;;9.94;78.26;98700.72;4936459;29;19990;-82
2024/03/11 08:00:05;;;;;;;;;;;9.70;99.90;;;9.97;78.41;98712.75;4921044;29;19927;-82
2024/03/11 08:02:33;;;;;;;;;;;9.70;99.90;;;9.95;78.52;98715.63;4921783;29;19931;-82
2024/03/11 08:05:01;;;;;;;;;;;9.70;99.90;;;9.95;78.47;98720.97;4922055;29;19927;-82
2024/03/11 08:07:32;;;;;;;;;;;9.70;99.90;;;9.94;78.52;98718.56;4922325;29;19942;-82
2024/03/11 08:10:00;;;;;;;;;;;9.70;99.90;;;9.94;78.73;98726.53;4922375;29;19927;-82
2024/03/11 08:12:29;;;;;;;;;;;9.70;99.90;;;9.95;78.61;98730.81;4920563;29;20001;-82
2024/03/11 08:14:59;;;;;;;;;;;9.70;99.90;;;9.96;78.56;98727.13;4936455;29;19927;-82
2024/03/11 08:17:26;;;;;;;;;;;9.70;99.90;;;9.95;78.63;98731.63;4904846;29;19926;-82
2024/03/11 08:19:53;;;;;;;;;;;9.70;99.90;;;9.91;78.68;98735.06;4920901;29;20393;-82
2024/03/11 08:22:21;;;;;;;;;;;9.70;99.90;;;9.93;78.90;98727.59;4923611;29;19928;-82
2024/03/11 08:24:48;;;;;;;;;;;9.60;99.90;;;9.92;78.83;98734.78;4921923;29;19927;-82
2024/03/11 08:27:15;;;;;;;;;;;9.70;99.90;;;9.93;78.84;98732.94;4922233;29;19931;-82
2024/03/11 08:29:44;;;;;;;;;;;9.70;99.90;;;9.94;78.82;98734.53;4919813;29;19939;-81
2024/03/11 08:32:12;;;;;;;;;;;9.70;99.90;;;9.93;78.82;98741.72;4919904;29;19970;-82
2024/03/11 08:34:41;;;;;;;;;;;9.70;99.90;;;9.95;78.83;98742.25;4920444;29;19927;-82
2024/03/11 08:37:09;;;;;;;;;;;9.70;99.90;;;9.95;78.74;98746.78;4922357;29;20025;-82
2024/03/11 08:39:37;;;;;;;;;;;9.70;99.90;;;9.89;78.80;98742.47;4926329;29;19969;-82
2024/03/11 08:42:04;;;;;;;;;;;9.70;99.90;;;9.88;78.94;98744.31;4892208;29;19979;-82
2024/03/11 08:44:31;;;;;;;;;;;9.60;99.90;;;9.90;78.87;98749.41;4926175;29;19927;-82
2024/03/11 08:47:01;;;;;;;;;;;9.70;99.90;;;9.89;78.83;98745.94;4925194;29;20400;-82
2024/03/11 08:49:29;;;;;;;;;;;9.70;99.90;;;9.89;78.99;98758.44;4945514;29;19933;-82
2024/03/11 08:51:58;;;;;;;;;;;9.70;99.90;;;9.90;79.05;98757.38;4928712;29;19930;-82
2024/03/11 08:54:28;;;;;;;;;;;9.70;99.90;;;9.92;79.10;98760.63;4944874;29;19931;-82
2024/03/11 08:56:56;;;;;;;;;;;9.70;99.90;;;9.93;79.02;98764.88;4945959;29;19962;-82
2024/03/11 08:59:24;;;;;;;;;;;9.70;99.90;;;9.90;78.95;98776.03;4945749;29;19933;-82
2024/03/11 09:01:53;;;;;;;;;;;9.70;99.90;;;9.88;78.99;98768.28;4929393;29;20025;-82
2024/03/11 09:04:22;;;;;;;;;;;9.70;99.90;;;9.82;78.96;98773.81;4928501;29;19933;-82
2024/03/11 09:06:49;;;;;;;;;;;9.60;99.90;;;9.85;78.93;98768.78;4945730;29;19927;-82
2024/03/11 09:09:24;;;;;;;;;;;9.60;99.90;;;9.84;79.01;98785.00;4946016;29;19927;-82
2024/03/11 09:11:56;;;;;;;;;;;9.60;99.90;;;9.83;78.94;98786.06;4930586;29;19962;-82
2024/03/11 09:14:26;;;;;;;;;;;9.60;99.90;;;9.83;78.90;98791.41;4944990;29;20344;-82
2024/03/11 09:16:54;;;;;;;;;;;9.60;99.90;;;9.86;78.78;98790.88;4945963;29;19926;-82
2024/03/11 09:19:23;;;;;;;;;;;9.60;99.90;;;9.88;78.69;98796.78;4926820;29;19927;-82
2024/03/11 09:21:51;;;;;;;;;;;9.60;99.90;;;9.88;78.87;98800.25;4944477;29;19973;-82
2024/03/11 09:24:19;;;;;;;;;;;9.60;99.90;;;9.88;78.80;98796.78;4944108;29;19926;-82
2024/03/11 09:26:49;;;;;;;;;;;9.60;99.90;;;9.88;78.70;98805.56;4942058;29;19938;-82
2024/03/11 09:29:17;;;;;;;;;;;9.60;99.90;;;9.89;78.83;98801.03;4943696;29;20021;-82
2024/03/11 09:31:45;;;;;;;;;;;9.70;99.90;;;9.90;78.79;98806.13;4941934;29;20009;-82
2024/03/11 09:34:12;;;;;;;;;;;9.70;99.90;;;9.90;78.72;98816.78;4943568;29;20029;-82
2024/03/11 09:36:41;;;;;;;;;;;9.70;99.90;;;9.91;79.17;98814.94;4943610;29;19934;-82
2024/03/11 09:39:11;;;;;;;;;;;9.70;99.90;;;9.91;78.96;98823.72;4924665;29;19927;-82
2024/03/11 09:41:41;;;;;;;;;;;9.70;99.90;;;9.91;78.89;98822.94;4925958;29;19933;-82
2024/03/11 09:44:14;;;;;;;;;;;9.70;99.90;;;9.92;78.99;98821.88;4925587;29;19927;-82
2024/03/11 09:46:42;;;;;;;;;;;9.70;99.90;;;9.93;79.03;98823.47;4943283;29;19927;-82
2024/03/11 09:49:10;;;;;;;;;;;9.70;99.90;;;9.94;78.60;98833.88;4951290;28;19933;-82
2024/03/11 09:51:39;;;;;;;;;;;9.70;99.90;;;9.93;78.67;98829.59;4941051;29;19982;-82
2024/03/11 09:54:13;;;;;;;;;;;9.70;99.90;;;9.90;78.77;98837.25;4941795;29;19934;-82
2024/03/11 09:56:41;;;;;;;;;;;9.70;99.90;;;9.91;79.03;98834.38;4973694;28;19950;-82
2024/03/11 09:59:09;;;;;;;;;;;9.70;99.90;;;9.93;78.97;98836.78;4943031;29;19958;-82
2024/03/11 10:01:42;;;;;;;;;;;9.60;99.90;;;9.94;78.93;98847.19;4942945;29;20031;-82
2024/03/11 10:04:12;;;;;;;;;;;9.70;99.90;;;9.94;78.85;98846.38;4933269;29;19951;-82
2024/03/11 10:06:40;;;;;;;;;;;9.70;99.90;;;9.94;79.41;98854.38;4953940;29;19931;-81
2024/03/11 10:09:18;;;;;;;;;;;9.70;99.90;;;9.93;79.02;98844.78;4923833;29;20432;-82
2024/03/11 10:12:00;;;;;;;;;;;9.70;99.90;;;9.95;79.14;98842.66;4922316;29;19927;-82
2024/03/11 10:14:28;;;;;;;;;;;9.80;99.90;;;9.95;79.26;98853.31;4929135;29;19927;-82
2024/03/11 10:16:55;;;;;;;;;;;9.70;99.90;;;9.95;79.27;98851.44;4942800;28;20411;-82
2024/03/11 10:19:24;;;;;;;;;;;9.80;99.90;;;9.92;79.24;98857.28;4942451;29;20369;-82
2024/03/11 10:22:02;;;;;;;;;;;9.70;99.90;;;9.93;79.01;98855.44;4941704;29;19955;-82
2024/03/11 10:24:36;;;;;;;;;;;9.70;99.90;;;9.92;78.93;98857.28;4940555;29;20374;-82
2024/03/11 10:27:18;;;;;;;;;;;9.70;99.90;;;9.87;78.92;98862.53;4942350;28;20022;-82
2024/03/11 10:29:45;;;;;;;;;;;9.70;99.90;;;9.88;78.92;98864.16;4943323;29;20365;-82
2024/03/11 10:32:31;;;;;;;;;;;9.70;99.90;;;9.90;79.23;98871.88;4942149;29;19958;-82
2024/03/11 10:34:59;;;;;;;;;;;9.70;99.90;;;9.91;79.13;98874.31;4933970;29;19926;-82
2024/03/11 10:37:26;;;;;;;;;;;9.60;99.90;;;9.91;79.10;98874.31;4959268;28;19927;-81
2024/03/11 10:40:00;;;;;;;;;;;9.70;99.90;;;9.90;79.32;98875.34;4975507;28;19926;-82
2024/03/11 10:42:32;;;;;;;;;;;9.70;99.90;;;9.91;79.25;98878.84;4959004;29;19952;-82
2024/03/11 10:45:05;;;;;;;;;;;9.70;99.90;;;9.93;79.37;98876.72;4975774;28;20050;-82
2024/03/11 10:47:32;;;;;;;;;;;9.70;99.90;;;9.93;79.40;98884.72;4958114;28;19926;-82
2024/03/11 10:50:01;;;;;;;;;;;9.70;99.90;;;9.86;79.56;98881.41;4959736;29;19955;-81
2024/03/11 10:52:33;;;;;;;;;;;9.70;99.90;;;9.80;79.58;98878.69;4959511;28;20445;-82
2024/03/11 10:55:05;;;;;;;;;;;9.70;99.90;;;9.82;79.80;98890.97;4958893;29;19930;-82
2024/03/11 10:57:38;;;;;;;;;;;9.70;99.90;;;9.74;80.00;98895.63;4927612;29;19926;-81
2024/03/11 11:00:19;;;;;;;;;;;9.60;99.90;;;9.83;79.88;98882.72;4958754;28;19926;-82
2024/03/11 11:02:49;;;;;;;;;;;9.70;99.90;;;9.90;79.91;98894.00;4958651;29;19926;-82
2024/03/11 11:05:18;;;;;;;;;;;9.80;99.90;;;9.90;79.92;98894.00;4943466;29;19926;-82
2024/03/11 11:07:46;;;;;;;;;;;9.80;99.90;;;9.84;80.18;98894.97;4942681;29;20017;-82
2024/03/11 11:10:17;;;;;;;;;;;9.70;99.90;;;9.91;80.18;98894.81;4942720;29;20336;-83
2024/03/11 11:12:45;;;;;;;;;;;9.80;99.90;;;9.95;80.08;98896.72;4943319;29;19961;-81
2024/03/11 11:15:13;;;;;;;;;;;9.80;99.90;;;9.98;79.86;98908.75;4960813;28;19927;-81
2024/03/11 11:17:42;;;;;;;;;;;9.80;99.90;;;10.00;79.94;98909.31;4942095;29;19926;-81
2024/03/11 11:20:29;;;;;;;;;;;9.80;99.90;;;10.02;80.05;98910.69;4941995;29;19989;-82
2024/03/11 11:22:59;;;;;;;;;;;9.90;99.90;;;10.04;80.02;98907.75;4946630;29;19986;-82
2024/03/11 11:25:39;;;;;;;;;;;9.80;99.90;;;10.00;80.12;98911.97;4943871;29;19936;-81
2024/03/11 11:28:13;;;;;;;;;;;9.80;99.90;;;10.02;79.63;98920.53;4960787;28;19930;-81
2024/03/11 11:30:41;;;;;;;;;;;9.90;99.90;;;10.03;79.71;98919.47;4927917;29;19933;-81
2024/03/11 11:33:10;;;;;;;;;;;10.10;99.90;;;10.07;79.95;98920.59;4911768;29;19950;-82
2024/03/11 11:35:37;;;;;;;;;;;9.90;99.90;;;9.99;79.74;98921.00;4942914;29;20326;-81
2024/03/11 11:38:29;;;;;;;;;;;9.90;99.90;;;10.04;80.10;98926.41;4942803;29;19961;-82